Time;durP1;ratioP1;P1;durP2;ratioP2;P2;SDS_P1;SDS_P2;PMS_P1;PMS_P2;Temp;Humidity;BMP_temperature;BMP_pressure;BME280_temperature;BME280_humidity;BME280_pressure;Samples;Min_cycle;Max_cycle;Signal;HPM_P1;HPM_P2
2023/10/21 00:00:24;;;;;;;90.40;35.57;;;11.10;99.90;;;;;;4980364;28;20466;-84
2023/10/21 00:02:53;;;;;;;109.43;37.37;;;11.10;99.90;;;;;;4996273;28;20381;-83
2023/10/21 00:05:19;;;;;;;102.80;36.43;;;11.10;99.90;;;;;;4996484;28;20309;-83
2023/10/21 00:07:45;;;;;;;88.47;34.80;;;11.10;99.90;;;;;;4997422;28;20341;-83
2023/10/21 00:10:11;;;;;;;94.17;34.67;;;11.10;99.90;;;;;;4997631;28;20301;-83
2023/10/21 00:12:37;;;;;;;99.63;35.93;;;11.00;99.90;;;;;;4980162;28;20498;-83
2023/10/21 00:15:07;;;;;;;83.33;34.53;;;11.00;99.90;;;;;;4964141;28;20487;-84
2023/10/21 00:17:33;;;;;;;96.47;35.47;;;11.10;99.90;;;;;;4996319;28;20769;-83
2023/10/21 00:20:00;;;;;;;101.67;35.87;;;11.20;99.90;;;;;;4996949;28;20789;-83
2023/10/21 00:22:26;;;;;;;79.80;31.93;;;11.20;99.90;;;;;;4963732;28;20297;-83
2023/10/21 00:24:52;;;;;;;114.17;35.07;;;11.20;99.90;;;;;;4995921;28;20785;-83
2023/10/21 00:27:18;;;;;;;102.27;34.87;;;11.20;99.90;;;;;;4995882;28;20372;-83
2023/10/21 00:29:44;;;;;;;104.53;35.07;;;11.10;99.90;;;;;;4996792;28;20309;-82
2023/10/21 00:32:10;;;;;;;101.97;34.70;;;11.00;99.90;;;;;;4996923;28;20057;-83
2023/10/21 00:34:39;;;;;;;83.57;33.07;;;11.10;99.90;;;;;;4996957;28;20051;-83
2023/10/21 00:37:05;;;;;;;86.23;31.50;;;11.10;99.90;;;;;;4995955;28;20407;-83
2023/10/21 00:39:34;;;;;;;102.07;33.40;;;11.10;99.90;;;;;;4980195;28;20761;-83
2023/10/21 00:42:20;;;;;;;98.87;33.03;;;11.10;99.90;;;;;;4997366;28;20820;-83
2023/10/21 00:44:48;;;;;;;86.93;31.13;;;11.10;99.90;;;;;;4995433;28;20300;-83
2023/10/21 00:47:15;;;;;;;106.00;33.57;;;11.10;99.90;;;;;;4996619;28;20285;-83
2023/10/21 00:49:42;;;;;;;99.43;32.03;;;11.10;99.90;;;;;;4995508;28;20396;-83
2023/10/21 00:52:08;;;;;;;96.37;31.73;;;11.10;99.90;;;;;;4996038;28;20281;-83
2023/10/21 00:54:33;;;;;;;101.80;31.67;;;11.10;99.90;;;;;;4995426;28;20685;-83
2023/10/21 00:56:59;;;;;;;89.67;31.00;;;11.10;99.90;;;;;;4996791;28;20129;-83
2023/10/21 00:59:25;;;;;;;98.53;31.03;;;11.10;99.90;;;;;;4979564;28;20137;-82
2023/10/21 01:01:51;;;;;;;100.43;31.93;;;11.20;99.90;;;;;;4963515;28;20046;-82
2023/10/21 01:04:18;;;;;;;122.57;32.97;;;11.20;99.90;;;;;;4996211;28;20471;-83
2023/10/21 01:06:44;;;;;;;99.53;30.67;;;11.20;99.90;;;;;;4978222;28;20487;-83
2023/10/21 01:09:16;;;;;;;84.10;29.53;;;11.20;99.90;;;;;;4994624;28;20309;-82
2023/10/21 01:11:42;;;;;;;73.00;27.53;;;11.20;99.90;;;;;;4980280;28;20046;-83
2023/10/21 01:14:09;;;;;;;71.00;28.47;;;11.20;99.90;;;;;;4979938;28;20313;-83
2023/10/21 01:16:35;;;;;;;93.23;30.00;;;11.20;99.90;;;;;;4994738;28;20296;-83
2023/10/21 01:19:01;;;;;;;74.77;27.97;;;11.20;99.90;;;;;;4995233;28;20293;-83
2023/10/21 01:21:26;;;;;;;70.67;27.67;;;11.20;99.90;;;;;;4996064;28;20304;-83
2023/10/21 01:23:52;;;;;;;87.00;30.17;;;11.20;99.90;;;;;;4979482;28;20049;-83
2023/10/21 01:26:18;;;;;;;91.37;30.37;;;11.20;99.90;;;;;;4963560;28;20050;-83
2023/10/21 01:28:44;;;;;;;72.70;28.90;;;11.20;99.90;;;;;;4996176;28;20185;-83
2023/10/21 01:31:10;;;;;;;87.43;30.60;;;11.10;99.90;;;;;;4978259;28;20929;-83
2023/10/21 01:33:35;;;;;;;75.87;28.00;;;11.20;99.90;;;;;;4995886;28;20190;-83
2023/10/21 01:36:01;;;;;;;71.43;27.90;;;11.10;99.90;;;;;;4994867;28;20050;-84
2023/10/21 01:38:29;;;;;;;90.70;29.97;;;11.10;99.90;;;;;;4995616;28;20050;-84
2023/10/21 01:40:55;;;;;;;85.30;30.23;;;11.10;99.90;;;;;;4995484;28;20518;-84
2023/10/21 01:43:21;;;;;;;72.37;28.50;;;11.20;99.90;;;;;;4979340;28;20297;-84
2023/10/21 01:45:49;;;;;;;79.13;29.07;;;11.20;99.90;;;;;;4978566;28;20109;-84
2023/10/21 01:48:15;;;;;;;87.10;29.37;;;11.20;99.90;;;;;;4995839;28;20400;-84
2023/10/21 01:50:41;;;;;;;67.37;26.40;;;11.30;99.90;;;;;;4995500;28;20377;-84
2023/10/21 01:53:10;;;;;;;77.00;27.23;;;11.20;99.90;;;;;;4978929;28;20090;-84
2023/10/21 01:55:36;;;;;;;91.60;28.40;;;11.30;99.90;;;;;;4994538;28;20046;-84
2023/10/21 01:58:01;;;;;;;74.67;26.70;;;11.20;99.90;;;;;;4978264;28;20844;-85
2023/10/21 02:00:27;;;;;;;80.43;27.03;;;11.20;99.90;;;;;;4994338;28;20046;-84
2023/10/21 02:02:54;;;;;;;72.53;26.17;;;11.10;99.90;;;;;;4979002;28;20104;-85
2023/10/21 02:05:21;;;;;;;66.77;25.80;;;11.10;99.90;;;;;;4978197;28;20333;-84
2023/10/21 02:07:48;;;;;;;86.17;26.67;;;11.10;99.90;;;;;;4978184;28;20301;-85
2023/10/21 02:10:14;;;;;;;79.00;25.50;;;11.00;99.90;;;;;;4994062;28;20363;-85
2023/10/21 02:12:40;;;;;;;65.90;25.57;;;11.00;99.90;;;;;;4962305;28;20748;-85
2023/10/21 02:15:11;;;;;;;68.77;23.90;;;11.00;99.90;;;;;;4977955;28;20424;-85
2023/10/21 02:17:38;;;;;;;52.00;22.07;;;11.10;99.90;;;;;;4993854;28;20666;-85
2023/10/21 02:20:05;;;;;;;48.93;22.20;;;11.00;99.90;;;;;;4993693;28;20298;-85
2023/10/21 02:22:33;;;;;;;47.17;21.70;;;11.00;99.90;;;;;;4993758;28;20286;-85
2023/10/21 02:24:59;;;;;;;60.20;23.03;;;11.00;99.90;;;;;;4993946;28;20300;-85
2023/10/21 02:27:25;;;;;;;57.43;23.40;;;10.90;99.90;;;;;;4978159;28;20734;-85
2023/10/21 02:29:51;;;;;;;51.93;21.83;;;11.10;99.90;;;;;;4993484;28;20054;-84
2023/10/21 02:32:16;;;;;;;48.40;21.27;;;11.00;99.90;;;;;;4994780;28;20125;-85
2023/10/21 02:34:42;;;;;;;73.13;25.13;;;11.00;99.90;;;;;;4961203;28;20056;-85
2023/10/21 02:37:09;;;;;;;48.07;20.87;;;11.00;99.90;;;;;;4994240;28;20050;-85
2023/10/21 02:39:38;;;;;;;57.43;22.03;;;11.00;99.90;;;;;;4993493;28;20133;-85
2023/10/21 02:42:04;;;;;;;47.93;21.10;;;10.90;99.90;;;;;;4993719;28;20322;-85
2023/10/21 02:44:29;;;;;;;50.33;21.20;;;10.90;99.90;;;;;;4962225;28;20289;-85
2023/10/21 02:46:55;;;;;;;45.40;20.30;;;10.90;99.90;;;;;;4978212;28;20651;-86
2023/10/21 02:49:21;;;;;;;53.27;21.33;;;11.00;99.90;;;;;;4977201;28;20133;-85
2023/10/21 02:51:47;;;;;;;36.17;18.53;;;10.90;99.90;;;;;;4993536;28;20046;-85
2023/10/21 02:54:15;;;;;;;48.47;20.97;;;10.90;99.90;;;;;;4993836;28;20058;-85
2023/10/21 02:56:42;;;;;;;63.37;23.10;;;11.00;99.90;;;;;;4994471;28;20281;-86
2023/10/21 02:59:08;;;;;;;46.90;20.83;;;10.90;99.90;;;;;;4977848;28;20599;-86
2023/10/21 03:01:34;;;;;;;53.90;20.70;;;10.90;99.90;;;;;;4994340;28;20339;-86
2023/10/21 03:04:03;;;;;;;55.40;21.47;;;10.80;99.90;;;;;;4977301;28;20100;-86
2023/10/21 03:06:34;;;;;;;47.63;21.03;;;10.90;99.90;;;;;;4962331;28;20050;-86
2023/10/21 03:09:00;;;;;;;41.60;18.67;;;10.80;99.90;;;;;;4993205;28;20392;-86
2023/10/21 03:11:34;;;;;;;38.15;18.23;;;10.80;99.90;;;;;;4993559;28;20380;-86
2023/10/21 03:14:00;;;;;;;39.40;18.33;;;10.80;99.90;;;;;;4994059;28;20548;-86
2023/10/21 03:16:26;;;;;;;47.33;19.50;;;10.80;99.90;;;;;;4976943;28;20050;-86
2023/10/21 03:18:53;;;;;;;50.23;18.57;;;10.80;99.90;;;;;;4976781;28;20189;-86
2023/10/21 03:21:19;;;;;;;39.83;17.70;;;10.80;99.90;;;;;;4994719;28;20046;-86
2023/10/21 03:23:45;;;;;;;38.83;17.77;;;10.80;99.90;;;;;;4993218;28;20294;-86
2023/10/21 03:26:11;;;;;;;35.40;17.27;;;10.80;99.90;;;;;;4977829;28;20101;-86
2023/10/21 03:28:38;;;;;;;31.73;16.00;;;10.80;99.90;;;;;;4993396;28;20046;-86
2023/10/21 03:31:05;;;;;;;31.93;16.60;;;10.80;99.90;;;;;;4978475;28;20352;-86
2023/10/21 03:33:31;;;;;;;35.17;17.00;;;10.80;99.90;;;;;;4997220;28;20294;-86
2023/10/21 03:36:02;;;;;;;32.43;15.80;;;10.80;99.90;;;;;;4998138;28;20286;-87
2023/10/21 03:38:29;;;;;;;42.27;19.03;;;10.80;99.90;;;;;;4997438;28;20297;-87
2023/10/21 03:41:06;;;;;;;43.23;18.47;;;10.80;99.90;;;;;;4980811;28;20299;-86
2023/10/21 03:43:32;;;;;;;41.23;17.83;;;10.80;99.90;;;;;;4997338;28;20347;-87
2023/10/21 03:46:03;;;;;;;40.00;19.47;;;10.80;99.90;;;;;;4980962;28;20305;-86
2023/10/21 03:48:29;;;;;;;56.27;20.23;;;10.90;99.90;;;;;;4997779;28;20316;-86
2023/10/21 03:51:05;;;;;;;55.63;22.17;;;10.80;99.90;;;;;;4996658;28;20785;-86
2023/10/21 03:53:32;;;;;;;44.47;20.00;;;10.80;99.90;;;;;;4980838;28;20050;-87
2023/10/21 03:55:59;;;;;;;37.00;19.40;;;10.80;99.90;;;;;;4980676;28;20788;-87
2023/10/21 03:58:26;;;;;;;41.53;20.20;;;10.80;99.90;;;;;;4997140;28;20843;-87
2023/10/21 04:00:52;;;;;;;69.27;25.50;;;10.90;99.90;;;;;;4980687;28;20285;-87
2023/10/21 04:03:19;;;;;;;53.77;23.40;;;10.80;99.90;;;;;;4980764;28;20289;-87
2023/10/21 04:05:45;;;;;;;55.83;24.73;;;10.80;99.90;;;;;;4996954;28;20297;-86
2023/10/21 04:08:11;;;;;;;47.93;23.50;;;10.80;99.90;;;;;;4996401;28;20281;-87
2023/10/21 04:10:37;;;;;;;70.00;26.57;;;10.70;99.90;;;;;;4996195;28;20478;-86
2023/10/21 04:13:03;;;;;;;53.60;24.30;;;10.70;99.90;;;;;;4997478;28;20292;-87
2023/10/21 04:15:32;;;;;;;67.33;26.50;;;10.80;99.90;;;;;;4996864;28;20050;-87
2023/10/21 04:17:58;;;;;;;100.97;32.07;;;10.70;99.90;;;;;;4980352;28;20839;-87
2023/10/21 04:20:24;;;;;;;56.47;25.77;;;10.70;99.90;;;;;;4996344;28;20296;-87
2023/10/21 04:22:50;;;;;;;68.37;28.63;;;10.70;99.90;;;;;;4996341;28;20289;-87
2023/10/21 04:25:16;;;;;;;78.57;30.90;;;10.70;99.90;;;;;;4995754;28;20081;-87
2023/10/21 04:27:42;;;;;;;70.90;29.87;;;10.70;99.90;;;;;;4980808;28;20065;-86
2023/10/21 04:30:08;;;;;;;71.43;29.50;;;10.70;99.90;;;;;;4963422;28;20309;-87
2023/10/21 04:32:34;;;;;;;77.77;31.80;;;10.60;99.90;;;;;;4997146;28;20061;-87
2023/10/21 04:35:00;;;;;;;73.57;32.37;;;10.60;99.90;;;;;;4995983;28;20766;-87
2023/10/21 04:37:26;;;;;;;115.73;36.33;;;10.60;99.90;;;;;;4995566;28;20057;-87
2023/10/21 04:39:53;;;;;;;121.23;38.30;;;10.70;99.90;;;;;;4979843;28;20297;-87
2023/10/21 04:42:18;;;;;;;112.17;38.20;;;10.60;99.90;;;;;;4995231;28;20781;-87
2023/10/21 04:44:44;;;;;;;86.43;34.83;;;10.60;99.90;;;;;;4995670;28;20294;-86
2023/10/21 04:47:15;;;;;;;100.07;36.43;;;10.50;99.90;;;;;;4979805;28;20050;-87
2023/10/21 04:49:44;;;;;;;118.93;39.53;;;10.50;99.90;;;;;;4995770;28;20050;-87
2023/10/21 04:52:11;;;;;;;116.30;38.60;;;10.50;99.90;;;;;;4995520;28;20352;-87
2023/10/21 04:54:37;;;;;;;130.13;42.57;;;10.50;99.90;;;;;;4996510;28;20875;-88
2023/10/21 04:57:03;;;;;;;124.50;40.10;;;10.50;99.90;;;;;;4996529;28;20321;-87
2023/10/21 04:59:29;;;;;;;91.33;37.07;;;10.50;99.90;;;;;;4948230;28;20042;-88
2023/10/21 05:02:01;;;;;;;83.10;34.90;;;10.50;99.90;;;;;;4980223;28;20482;-87
2023/10/21 05:04:27;;;;;;;137.20;42.70;;;10.50;99.90;;;;;;4996567;28;20050;-88
2023/10/21 05:06:53;;;;;;;125.43;43.70;;;10.50;99.90;;;;;;4979423;28;20424;-88
2023/10/21 05:09:19;;;;;;;112.53;41.60;;;10.50;99.90;;;;;;4979931;28;20344;-88
2023/10/21 05:11:47;;;;;;;128.73;43.47;;;10.50;99.90;;;;;;4995732;28;20081;-87
2023/10/21 05:14:14;;;;;;;75.07;36.40;;;10.50;99.90;;;;;;4979307;28;20292;-88
2023/10/21 05:16:39;;;;;;;141.47;45.57;;;10.50;99.90;;;;;;4995376;28;20689;-88
2023/10/21 05:19:08;;;;;;;84.97;35.37;;;10.50;99.90;;;;;;4995384;28;20297;-88
2023/10/21 05:21:33;;;;;;;100.57;42.17;;;10.60;99.90;;;;;;4995160;28;20089;-87
2023/10/21 05:23:59;;;;;;;114.37;41.50;;;10.50;99.90;;;;;;4995436;28;20321;-87
2023/10/21 05:26:28;;;;;;;110.03;40.03;;;10.60;99.90;;;;;;4995184;28;20065;-88
2023/10/21 05:28:54;;;;;;;98.63;38.67;;;10.50;99.90;;;;;;4995006;28;20494;-87
2023/10/21 05:31:22;;;;;;;112.50;40.97;;;10.50;99.90;;;;;;4994965;28;20373;-88
2023/10/21 05:33:50;;;;;;;155.20;44.63;;;10.50;99.90;;;;;;4994826;28;20687;-87
2023/10/21 05:36:16;;;;;;;99.20;38.60;;;10.50;99.90;;;;;;4979012;28;20317;-88
2023/10/21 05:38:45;;;;;;;123.63;42.60;;;10.50;99.90;;;;;;4995300;28;20281;-87
2023/10/21 05:41:11;;;;;;;153.83;44.33;;;10.50;99.90;;;;;;4978412;28;20845;-88
2023/10/21 05:43:36;;;;;;;103.50;39.93;;;10.50;99.90;;;;;;4978251;28;20445;-88
2023/10/21 05:46:03;;;;;;;113.77;39.23;;;10.60;99.90;;;;;;4994369;28;20399;-88
2023/10/21 05:48:29;;;;;;;103.63;37.90;;;10.50;99.90;;;;;;4994385;28;20038;-88
2023/10/21 05:51:00;;;;;;;87.03;36.77;;;10.60;99.90;;;;;;4994578;28;20424;-87
2023/10/21 05:53:26;;;;;;;124.07;42.10;;;10.60;99.90;;;;;;4977488;28;20046;-87
2023/10/21 05:55:54;;;;;;;93.10;37.37;;;10.60;99.90;;;;;;4978308;28;20766;-86
2023/10/21 05:58:20;;;;;;;100.43;40.07;;;10.60;99.90;;;;;;4994553;28;20140;-88
2023/10/21 06:00:46;;;;;;;108.67;39.17;;;10.60;99.90;;;;;;4994580;28;20320;-88
2023/10/21 06:03:13;;;;;;;113.97;39.03;;;10.60;99.90;;;;;;4994311;28;20438;-87
2023/10/21 06:05:39;;;;;;;96.90;37.93;;;10.60;99.90;;;;;;4979130;28;20089;-87
2023/10/21 06:08:06;;;;;;;90.37;37.13;;;10.60;99.90;;;;;;4995019;28;20352;-87
2023/10/21 06:10:31;;;;;;;72.63;33.80;;;10.60;99.90;;;;;;4995314;28;20058;-87
2023/10/21 06:12:57;;;;;;;91.60;35.90;;;10.70;99.90;;;;;;4978106;28;20292;-87
2023/10/21 06:15:26;;;;;;;135.27;42.87;;;10.60;99.90;;;;;;4994571;28;20096;-87
2023/10/21 06:17:52;;;;;;;89.40;36.77;;;10.60;99.90;;;;;;4994181;28;20068;-86
2023/10/21 06:20:17;;;;;;;110.43;39.47;;;10.70;99.90;;;;;;4994079;28;20848;-86
2023/10/21 06:22:43;;;;;;;100.37;36.97;;;10.60;99.90;;;;;;4977407;28;20054;-87
2023/10/21 06:25:12;;;;;;;104.87;38.27;;;10.60;99.90;;;;;;4993712;28;20057;-87
2023/10/21 06:27:37;;;;;;;93.87;36.20;;;10.60;99.90;;;;;;4977515;28;20056;-87
2023/10/21 06:30:04;;;;;;;72.33;33.63;;;10.60;99.90;;;;;;4993241;28;20313;-86
2023/10/21 06:32:33;;;;;;;77.73;35.87;;;10.60;99.90;;;;;;4977752;28;20054;-87
2023/10/21 06:34:59;;;;;;;95.20;36.17;;;10.60;99.90;;;;;;4993284;28;20298;-87
2023/10/21 06:37:32;;;;;;;96.40;36.63;;;10.70;99.90;;;;;;4994044;28;20293;-87
2023/10/21 06:40:01;;;;;;;70.47;32.93;;;10.70;99.90;;;;;;4977860;28;20046;-87
2023/10/21 06:42:27;;;;;;;69.07;33.00;;;10.70;99.90;;;;;;4994057;28;20297;-87
2023/10/21 06:44:55;;;;;;;82.33;33.57;;;10.70;99.90;;;;;;4977812;28;20416;-88
2023/10/21 06:47:21;;;;;;;60.73;30.37;;;10.80;99.90;;;;;;4993683;28;20053;-88
2023/10/21 06:49:49;;;;;;;65.57;32.87;;;10.80;99.90;;;;;;4977133;28;20819;-88
2023/10/21 06:52:28;;;;;;;;;;;;;;;;;;;;;
2023/10/21 06:54:54;;;;;;;86.57;35.90;;;10.90;99.90;;;;;;4993884;28;20779;-88
2023/10/21 06:57:20;;;;;;;112.67;38.77;;;10.90;99.90;;;;;;4977356;28;20285;-88
2023/10/21 06:59:46;;;;;;;75.63;33.83;;;10.90;99.90;;;;;;4977094;28;20324;-88
2023/10/21 07:02:12;;;;;;;68.77;32.30;;;11.00;99.90;;;;;;4977782;28;20758;-87
2023/10/21 07:04:40;;;;;;;68.77;32.63;;;10.90;99.90;;;;;;4978111;28;20289;-87
2023/10/21 07:07:10;;;;;;;107.93;38.10;;;10.90;99.90;;;;;;4993389;28;20133;-88
2023/10/21 07:09:37;;;;;;;88.60;35.93;;;10.90;99.90;;;;;;4993274;28;20793;-87
2023/10/21 07:12:04;;;;;;;71.57;34.13;;;10.90;99.90;;;;;;4993373;28;20630;-87
2023/10/21 07:14:30;;;;;;;72.63;32.00;;;11.00;99.90;;;;;;4976867;28;20344;-88
2023/10/21 07:16:57;;;;;;;79.97;32.67;;;11.00;99.90;;;;;;4977088;28;20300;-88
2023/10/21 07:19:23;;;;;;;75.23;31.23;;;11.10;99.90;;;;;;4976686;28;20286;-88
2023/10/21 07:21:48;;;;;;;77.20;32.83;;;11.10;99.90;;;;;;4993546;28;20289;-88
2023/10/21 07:24:15;;;;;;;53.13;28.93;;;11.10;99.90;;;;;;4994380;28;20050;-87
2023/10/21 07:26:41;;;;;;;72.63;32.40;;;11.10;99.90;;;;;;4992964;28;20051;-88
2023/10/21 07:29:12;;;;;;;65.43;31.10;;;11.20;99.90;;;;;;4993624;28;20309;-88
2023/10/21 07:31:42;;;;;;;68.23;31.67;;;11.20;99.90;;;;;;4993059;28;20095;-88
2023/10/21 07:34:11;;;;;;;70.50;30.83;;;11.20;99.90;;;;;;4977214;28;20289;-88
2023/10/21 07:36:37;;;;;;;63.53;29.87;;;11.20;99.90;;;;;;4976972;28;20296;-88
2023/10/21 07:39:05;;;;;;;68.80;29.80;;;11.30;99.90;;;;;;4992588;28;20297;-87
2023/10/21 07:41:34;;;;;;;69.87;30.93;;;11.30;99.90;;;;;;4977304;28;20057;-87
2023/10/21 07:44:06;;;;;;;82.03;31.63;;;11.30;99.90;;;;;;4977251;28;20290;-87
2023/10/21 07:46:34;;;;;;;76.47;31.37;;;11.40;99.90;;;;;;4993848;28;20363;-84
2023/10/21 07:49:05;;;;;;;51.23;27.60;;;11.40;99.90;;;;;;4993219;28;20309;-89
2023/10/21 07:51:34;;;;;;;64.33;30.17;;;11.40;99.90;;;;;;4977924;28;20336;-87
2023/10/21 07:53:59;;;;;;;46.37;25.00;;;11.50;99.90;;;;;;4977548;28;20293;-87
2023/10/21 07:56:25;;;;;;;64.13;29.70;;;11.50;99.90;;;;;;4977109;28;20509;-86
2023/10/21 07:58:51;;;;;;;63.00;28.70;;;11.50;99.90;;;;;;4993949;28;20049;-83
2023/10/21 08:01:16;;;;;;;53.53;27.60;;;11.60;99.90;;;;;;4976715;28;20065;-81
2023/10/21 08:03:44;;;;;;;60.20;27.87;;;11.60;99.90;;;;;;4993933;28;20085;-82
2023/10/21 08:06:10;;;;;;;57.47;29.80;;;11.70;99.90;;;;;;4993878;28;20042;-82
2023/10/21 08:08:35;;;;;;;78.37;31.13;;;11.80;99.90;;;;;;4992525;28;20804;-83
2023/10/21 08:11:04;;;;;;;59.30;29.17;;;11.80;99.90;;;;;;4992832;28;20086;-81
2023/10/21 08:13:30;;;;;;;55.10;27.07;;;11.90;99.90;;;;;;4992631;28;20051;-81
2023/10/21 08:15:56;;;;;;;66.33;29.80;;;11.90;99.90;;;;;;4992784;28;20286;-81
2023/10/21 08:18:23;;;;;;;50.80;28.17;;;12.00;99.90;;;;;;4997415;28;20125;-81
2023/10/21 08:20:49;;;;;;;50.97;26.93;;;12.10;99.90;;;;;;4996269;28;20508;-83
2023/10/21 08:23:15;;;;;;;49.53;26.87;;;12.10;99.90;;;;;;4996325;28;20285;-84
2023/10/21 08:25:41;;;;;;;41.37;25.57;;;12.10;99.90;;;;;;4980169;28;20057;-83
2023/10/21 08:28:08;;;;;;;46.17;26.17;;;12.20;99.90;;;;;;4996285;28;20286;-81
2023/10/21 08:30:36;;;;;;;49.17;25.23;;;12.20;99.90;;;;;;4997228;28;20062;-81
2023/10/21 08:33:05;;;;;;;38.53;24.10;;;12.30;99.90;;;;;;4997957;28;20290;-81
2023/10/21 08:35:32;;;;;;;47.77;23.83;;;12.30;99.90;;;;;;4996967;28;20290;-82
2023/10/21 08:37:58;;;;;;;36.83;22.60;;;12.30;99.90;;;;;;4995860;28;20328;-81
2023/10/21 08:40:25;;;;;;;43.17;22.13;;;12.40;99.90;;;;;;4997062;28;20297;-80
2023/10/21 08:42:51;;;;;;;34.93;21.03;;;12.40;99.90;;;;;;4996047;28;20786;-81
2023/10/21 08:45:19;;;;;;;28.80;18.90;;;12.40;99.90;;;;;;4996210;28;20325;-82
2023/10/21 08:47:45;;;;;;;36.97;19.63;;;12.50;99.90;;;;;;4979987;28;20054;-82
2023/10/21 08:50:13;;;;;;;36.93;21.37;;;12.50;99.90;;;;;;4995903;28;20309;-82
2023/10/21 08:52:40;;;;;;;41.47;20.50;;;12.60;99.90;;;;;;4996686;28;20687;-82
2023/10/21 08:55:07;;;;;;;31.03;18.10;;;12.60;99.90;;;;;;4995539;28;20839;-81
2023/10/21 08:57:33;;;;;;;33.23;18.13;;;12.50;99.90;;;;;;4996065;28;20290;-82
2023/10/21 08:59:59;;;;;;;29.40;17.47;;;12.60;99.90;;;;;;4997295;28;20416;-82
2023/10/21 09:02:26;;;;;;;25.20;16.13;;;12.60;99.90;;;;;;4996752;28;20289;-82
2023/10/21 09:04:51;;;;;;;27.13;16.80;;;12.70;99.90;;;;;;4996278;28;20618;-82
2023/10/21 09:07:17;;;;;;;24.23;16.40;;;12.70;99.90;;;;;;4997356;28;20290;-82
2023/10/21 09:09:43;;;;;;;22.73;15.63;;;12.80;99.90;;;;;;4979258;28;20046;-81
2023/10/21 09:12:11;;;;;;;23.20;13.73;;;12.80;99.90;;;;;;4996317;28;20050;-84
2023/10/21 09:14:55;;;;;;;18.47;13.10;;;12.90;99.90;;;;;;4996479;28;20057;-80
2023/10/21 09:17:36;;;;;;;23.15;13.27;;;12.90;99.90;;;;;;4996080;28;20762;-81
2023/10/21 09:20:22;;;;;;;26.27;13.30;;;12.90;99.90;;;;;;4996450;28;20050;-82
2023/10/21 09:22:49;;;;;;;18.33;11.30;;;12.90;99.90;;;;;;4996060;28;20387;-81
2023/10/21 09:25:20;;;;;;;22.20;13.97;;;12.90;99.90;;;;;;4996277;28;20056;-83
2023/10/21 09:27:46;;;;;;;22.77;12.97;;;12.90;99.90;;;;;;4995143;28;20811;-85
2023/10/21 09:30:15;;;;;;;25.83;13.13;;;13.00;99.90;;;;;;4994277;28;20392;-83
2023/10/21 09:32:41;;;;;;;19.53;10.67;;;12.90;99.90;;;;;;4995175;28;20305;-83
2023/10/21 09:35:30;;;;;;;21.40;12.70;;;13.00;99.90;;;;;;4978874;28;20296;-83
2023/10/21 09:38:16;;;;;;;17.10;10.73;;;13.00;99.90;;;;;;4995154;28;20050;-83
2023/10/21 09:40:43;;;;;;;14.90;10.33;;;13.00;99.90;;;;;;4994024;28;20482;-81
2023/10/21 09:43:12;;;;;;;16.47;9.83;;;13.00;99.90;;;;;;4995006;28;20142;-82
2023/10/21 09:45:43;;;;;;;15.43;9.30;;;13.00;99.90;;;;;;4994723;28;20133;-82
2023/10/21 09:48:11;;;;;;;17.07;8.43;;;13.10;99.90;;;;;;4995207;28;20170;-81
2023/10/21 09:50:40;;;;;;;16.80;9.43;;;13.00;99.90;;;;;;4996023;28;20050;-79
2023/10/21 09:53:15;;;;;;;14.97;9.07;;;13.10;99.90;;;;;;4994363;28;20577;-79
2023/10/21 09:55:41;;;;;;;14.20;8.43;;;13.10;99.90;;;;;;4995819;28;20133;-80
2023/10/21 09:58:08;;;;;;;19.00;9.30;;;13.00;99.90;;;;;;4995778;28;20072;-80
2023/10/21 10:00:35;;;;;;;13.13;8.30;;;13.00;99.90;;;;;;4994676;28;20054;-81
2023/10/21 10:03:01;;;;;;;19.70;10.00;;;13.00;99.90;;;;;;4995587;28;20046;-81
2023/10/21 10:05:27;;;;;;;12.53;7.53;;;13.10;99.90;;;;;;4995493;28;20093;-79
2023/10/21 10:07:53;;;;;;;11.57;6.27;;;13.00;99.90;;;;;;4995397;28;20046;-79
2023/10/21 10:10:23;;;;;;;10.90;6.27;;;13.00;99.90;;;;;;4995481;28;20054;-81
2023/10/21 10:12:55;;;;;;;12.00;7.30;;;13.00;99.90;;;;;;4995703;28;20125;-79
2023/10/21 10:15:27;;;;;;;13.00;6.77;;;13.00;99.90;;;;;;4994339;28;20051;-85
2023/10/21 10:17:53;;;;;;;15.57;9.50;;;13.10;99.90;;;;;;4978043;28;20388;-81
2023/10/21 10:20:24;;;;;;;13.47;7.80;;;13.00;99.90;;;;;;4994765;28;20282;-81
2023/10/21 10:23:09;;;;;;;15.43;9.70;;;13.00;99.90;;;;;;4994458;28;20489;-82
2023/10/21 10:25:39;;;;;;;10.43;7.03;;;13.00;99.90;;;;;;4994479;28;20053;-84
2023/10/21 10:28:17;;;;;;;12.60;8.00;;;12.90;99.90;;;;;;4994382;28;20073;-84
2023/10/21 10:30:44;;;;;;;14.53;9.77;;;13.10;99.90;;;;;;4977529;28;20066;-82
2023/10/21 10:33:15;;;;;;;13.73;8.97;;;13.00;99.90;;;;;;4993914;28;20088;-84
2023/10/21 10:35:51;;;;;;;16.70;9.70;;;13.10;99.90;;;;;;4978427;28;20046;-88
2023/10/21 10:38:25;;;;;;;18.87;8.40;;;13.10;99.90;;;;;;4978476;28;20065;-85
2023/10/21 10:40:52;;;;;;;13.00;7.87;;;13.20;99.90;;;;;;4993594;28;20057;-84
2023/10/21 10:43:19;;;;;;;8.67;6.90;;;13.20;99.90;;;;;;4994543;28;20499;-86
2023/10/21 10:45:47;;;;;;;12.97;9.00;;;13.30;99.90;;;;;;4993777;28;20065;-83
2023/10/21 10:48:14;;;;;;;27.47;24.53;;;13.20;99.90;;;;;;4993786;28;20092;-82
2023/10/21 10:50:40;;;;;;;20.77;15.43;;;13.30;99.90;;;;;;4995222;28;20152;-82
2023/10/21 10:53:17;;;;;;;14.20;10.70;;;13.30;99.90;;;;;;4994182;28;20078;-83
2023/10/21 10:55:55;;;;;;;7.10;5.27;;;13.40;99.90;;;;;;4994418;28;20418;-84
2023/10/21 10:58:23;;;;;;;8.63;4.13;;;13.30;99.90;;;;;;4994282;28;20078;-82
2023/10/21 11:00:51;;;;;;;7.47;4.13;;;13.20;99.90;;;;;;4977359;28;20096;-81
2023/10/21 11:03:23;;;;;;;9.77;4.77;;;13.10;99.90;;;;;;4993237;28;20173;-82
2023/10/21 11:05:51;;;;;;;8.57;3.80;;;13.20;99.90;;;;;;4993218;28;20399;-82
2023/10/21 11:08:18;;;;;;;9.63;4.40;;;13.20;99.90;;;;;;4994344;28;20054;-82
2023/10/21 11:10:43;;;;;;;9.33;4.60;;;13.20;99.90;;;;;;4995014;28;20069;-84
2023/10/21 11:13:12;;;;;;;7.30;4.80;;;13.10;99.90;;;;;;4976883;28;20483;-83
2023/10/21 11:15:44;;;;;;;10.37;8.90;;;13.20;99.90;;;;;;4977041;28;20046;-78
2023/10/21 11:18:11;;;;;;;11.50;10.27;;;13.20;99.90;;;;;;4992820;28;20038;-80
2023/10/21 11:20:49;;;;;;;8.53;6.30;;;13.10;99.90;;;;;;4977293;28;20372;-83
2023/10/21 11:23:23;;;;;;;11.43;6.10;;;13.10;99.90;;;;;;4995037;28;20069;-83
2023/10/21 11:26:00;;;;;;;11.05;6.05;;;13.00;99.90;;;;;;4993226;28;20382;-82
2023/10/21 11:28:27;;;;;;;8.10;5.20;;;13.10;99.90;;;;;;4976811;28;20057;-82
2023/10/21 11:30:53;;;;;;;6.37;3.40;;;13.00;99.90;;;;;;4976240;28;20064;-83
2023/10/21 11:33:20;;;;;;;7.70;3.10;;;13.10;99.90;;;;;;4993458;28;20059;-82
2023/10/21 11:35:47;;;;;;;6.63;2.93;;;13.10;99.90;;;;;;4993052;28;20517;-83
2023/10/21 11:38:17;;;;;;;4.33;1.70;;;13.10;99.90;;;;;;4976959;28;20046;-83
2023/10/21 11:40:46;;;;;;;5.60;2.43;;;13.10;99.90;;;;;;4976926;28;20046;-82
2023/10/21 11:43:16;;;;;;;4.73;1.90;;;13.10;99.90;;;;;;4993582;28;20557;-82
2023/10/21 11:45:42;;;;;;;4.17;1.60;;;13.00;99.90;;;;;;4993030;28;20078;-81
2023/10/21 11:48:11;;;;;;;6.37;1.90;;;13.00;99.90;;;;;;4994094;28;20451;-80
2023/10/21 11:50:42;;;;;;;6.43;1.90;;;13.00;99.90;;;;;;4993802;28;20046;-80
2023/10/21 11:53:09;;;;;;;8.03;2.07;;;13.10;99.90;;;;;;4996476;28;20050;-82
2023/10/21 12:38:39;;;;;;;5.18;1.80;;;13.20;99.90;;;;;;4982814;28;20096;-83
2023/10/21 12:41:26;;;;;;;5.10;1.77;;;13.20;99.90;;;;;;4996135;28;20054;-83
2023/10/21 12:43:55;;;;;;;5.13;2.30;;;13.10;99.90;;;;;;4983035;28;20100;-84
2023/10/21 12:46:24;;;;;;;7.93;1.60;;;13.20;99.90;;;;;;4980659;28;20054;-84
2023/10/21 12:48:54;;;;;;;4.27;1.40;;;13.20;99.90;;;;;;4996144;28;20050;-85
2023/10/21 12:51:21;;;;;;;5.90;1.87;;;13.20;99.90;;;;;;4996658;28;20042;-85
2023/10/21 12:53:48;;;;;;;7.40;1.90;;;13.10;99.90;;;;;;4979167;28;20185;-85
2023/10/21 12:56:14;;;;;;;5.63;1.70;;;13.10;99.90;;;;;;4980171;28;20057;-84
2023/10/21 12:58:41;;;;;;;6.97;1.60;;;13.10;99.90;;;;;;4995830;28;20065;-83
2023/10/21 13:01:14;;;;;;;5.70;1.60;;;13.10;99.90;;;;;;4996481;28;20382;-84
2023/10/21 13:03:41;;;;;;;3.63;1.40;;;13.10;99.90;;;;;;4980043;28;20054;-82
2023/10/21 13:06:09;;;;;;;4.30;1.63;;;13.10;99.90;;;;;;4995429;28;20053;-83
2023/10/21 13:08:35;;;;;;;7.33;1.80;;;13.10;99.90;;;;;;4979321;28;20069;-80
2023/10/21 13:11:02;;;;;;;4.07;1.47;;;13.10;99.90;;;;;;4996110;28;20133;-81
2023/10/21 13:13:28;;;;;;;2.60;1.30;;;13.10;99.90;;;;;;4995965;28;20467;-83
2023/10/21 13:15:56;;;;;;;4.93;1.30;;;13.10;99.90;;;;;;4995256;28;20050;-82